Terminal Aerodrome Forecast
Issued by NWS Norman, OK

Home | Current Version | Previous Version | Text Only | Print | Product List | Glossary On
Versions: 1 2 3 4 5 6 7 8 9 10 11 12 13
000
FTUS44 KOUN 231743
TAFSPS
TAF
KSPS 231743Z 2318/2418 17015G25KT P6SM FEW040
     FM240000 14010KT P6SM SKC
     FM241500 17014KT P6SM BKN250=

USA.gov is the U.S. government's official web portal to all federal, state and local government web resources and services.